Time;durP1;ratioP1;P1;durP2;ratioP2;P2;SDS_P1;SDS_P2;PMS_P1;PMS_P2;Temp;Humidity;BMP_temperature;BMP_pressure;BME280_temperature;BME280_humidity;BME280_pressure;Samples;Min_cycle;Max_cycle;Signal;HPM_P1;HPM_P2
2023/08/29 00:01:47;;;;;;;0.20;0.20;;;22.20;70.70;;;;;;5028645;28;20041;-79
2023/08/29 00:04:14;;;;;;;0.10;0.10;;;22.20;70.70;;;;;;5009612;28;20069;-80
2023/08/29 00:06:40;;;;;;;0.20;0.20;;;22.20;70.60;;;;;;5026630;28;20076;-80
2023/08/29 00:09:06;;;;;;;0.30;0.30;;;22.20;70.60;;;;;;5026924;28;20515;-79
2023/08/29 00:11:52;;;;;;;0.30;0.30;;;22.20;70.70;;;;;;5025884;28;20482;-80
2023/08/29 00:14:18;;;;;;;0.30;0.30;;;22.20;70.60;;;;;;5024728;28;20057;-79
2023/08/29 00:16:43;;;;;;;0.20;0.20;;;22.20;70.70;;;;;;5027249;28;20484;-80
2023/08/29 00:19:09;;;;;;;0.40;0.20;;;22.30;70.60;;;;;;5026119;28;20034;-79
2023/08/29 00:21:35;;;;;;;0.30;0.30;;;22.20;70.60;;;;;;5024380;28;20049;-79
2023/08/29 00:24:00;;;;;;;0.30;0.15;;;22.20;70.70;;;;;;5024522;28;20114;-79
2023/08/29 00:26:26;;;;;;;0.40;0.22;;;22.20;70.70;;;;;;5024269;28;20116;-79
2023/08/29 00:28:53;;;;;;;0.20;0.20;;;22.20;70.70;;;;;;5026358;28;20095;-80
2023/08/29 00:31:19;;;;;;;0.15;0.15;;;22.30;70.70;;;;;;5023667;28;20045;-80
2023/08/29 00:33:44;;;;;;;0.20;0.20;;;22.20;70.70;;;;;;5026413;28;20095;-80
2023/08/29 00:36:10;;;;;;;0.25;0.20;;;22.20;70.70;;;;;;5026188;28;20040;-79
2023/08/29 00:38:35;;;;;;;0.40;0.30;;;22.20;70.60;;;;;;5025320;28;20151;-80
2023/08/29 00:41:01;;;;;;;0.10;0.10;;;22.20;70.70;;;;;;5024545;28;20052;-80
2023/08/29 00:43:26;;;;;;;0.28;0.28;;;22.20;70.70;;;;;;5024850;28;20538;-79
2023/08/29 00:45:52;;;;;;;0.30;0.30;;;22.20;70.60;;;;;;5021770;28;20045;-79
2023/08/29 00:48:18;;;;;;;0.22;0.22;;;22.20;70.70;;;;;;5023306;28;20049;-80
2023/08/29 00:50:43;;;;;;;0.20;0.20;;;22.20;70.50;;;;;;5022346;28;20041;-79
2023/08/29 00:53:09;;;;;;;0.20;0.20;;;22.20;70.70;;;;;;5024325;28;20914;-80
2023/08/29 00:55:34;;;;;;;0.20;0.20;;;22.20;70.70;;;;;;5021570;28;20073;-80
2023/08/29 00:58:04;;;;;;;0.45;0.20;;;22.20;70.50;;;;;;5027063;28;20053;-79
2023/08/29 01:00:30;;;;;;;0.35;0.22;;;22.20;70.60;;;;;;5022676;28;20033;-79
2023/08/29 01:02:56;;;;;;;0.10;0.10;;;22.20;70.60;;;;;;5025808;28;20498;-80
2023/08/29 01:05:22;;;;;;;0.30;0.28;;;22.20;70.60;;;;;;5024837;28;20045;-80
2023/08/29 01:07:49;;;;;;;0.20;0.20;;;22.20;70.70;;;;;;5023956;28;20041;-80
2023/08/29 01:10:15;;;;;;;0.63;0.52;;;22.20;70.60;;;;;;5023473;28;20037;-80
2023/08/29 01:12:51;;;;;;;0.13;0.13;;;22.20;70.70;;;;;;5026772;28;20052;-80
2023/08/29 01:15:21;;;;;;;0.20;0.20;;;22.20;70.70;;;;;;5007433;28;20037;-80
2023/08/29 01:17:48;;;;;;;0.32;0.32;;;22.20;70.60;;;;;;5025065;28;20033;-80
2023/08/29 01:20:14;;;;;;;0.15;0.15;;;22.20;70.70;;;;;;5025604;28;20048;-80
2023/08/29 01:23:02;;;;;;;0.25;0.25;;;22.10;70.60;;;;;;5026019;28;20570;-80
2023/08/29 01:25:35;;;;;;;0.20;0.20;;;22.20;70.70;;;;;;5020127;28;20041;-79
2023/08/29 01:28:01;;;;;;;0.30;0.28;;;22.20;70.70;;;;;;5005518;28;21062;-80
2023/08/29 01:30:26;;;;;;;0.30;0.30;;;22.10;70.70;;;;;;5022516;28;20049;-79
2023/08/29 01:32:52;;;;;;;0.22;0.22;;;22.20;70.70;;;;;;5004708;28;20044;-80
2023/08/29 01:35:18;;;;;;;0.32;0.32;;;22.10;70.70;;;;;;5007381;28;20104;-80
2023/08/29 01:37:43;;;;;;;0.32;0.20;;;22.10;70.70;;;;;;5022392;28;20117;-79
2023/08/29 01:40:10;;;;;;;0.30;0.20;;;22.10;70.60;;;;;;5026505;28;20129;-80
2023/08/29 01:42:36;;;;;;;0.30;0.30;;;22.10;70.70;;;;;;5026118;28;20029;-79
2023/08/29 01:45:03;;;;;;;0.20;0.20;;;22.10;70.70;;;;;;5025199;28;20052;-80
2023/08/29 01:47:29;;;;;;;0.20;0.20;;;22.10;70.80;;;;;;5019233;28;20772;-79
2023/08/29 01:49:54;;;;;;;0.65;0.40;;;22.10;70.90;;;;;;5022289;28;20048;-79
2023/08/29 01:52:20;;;;;;;0.20;0.20;;;22.10;70.80;;;;;;5023500;28;20025;-79
2023/08/29 01:54:45;;;;;;;0.20;0.20;;;22.10;70.80;;;;;;5024302;28;20042;-80
2023/08/29 01:57:11;;;;;;;0.20;0.20;;;22.10;70.80;;;;;;5021791;28;20029;-79
2023/08/29 01:59:37;;;;;;;0.30;0.20;;;22.10;70.90;;;;;;5022755;28;20526;-80
2023/08/29 02:02:02;;;;;;;0.40;0.30;;;22.10;70.90;;;;;;5022524;28;20060;-79
2023/08/29 02:04:28;;;;;;;0.20;0.20;;;22.10;70.90;;;;;;5025321;28;20064;-79
2023/08/29 02:06:54;;;;;;;0.35;0.20;;;22.10;71.00;;;;;;5025322;28;20045;-79
2023/08/29 02:09:20;;;;;;;0.22;0.22;;;22.10;70.90;;;;;;5024802;28;20388;-80
2023/08/29 02:11:46;;;;;;;0.35;0.20;;;22.10;70.80;;;;;;5021931;28;20053;-79
2023/08/29 02:14:11;;;;;;;0.43;0.43;;;22.10;70.80;;;;;;5029579;28;20813;-79
2023/08/29 02:16:38;;;;;;;0.20;0.20;;;22.10;70.70;;;;;;5025461;28;20049;-79
2023/08/29 02:19:04;;;;;;;0.28;0.28;;;22.10;70.90;;;;;;5026922;28;20541;-80
2023/08/29 02:21:29;;;;;;;0.28;0.28;;;22.10;70.90;;;;;;5028658;28;20068;-80
2023/08/29 02:23:55;;;;;;;0.30;0.30;;;22.10;70.80;;;;;;5024781;28;20081;-79
2023/08/29 02:26:20;;;;;;;0.20;0.20;;;22.10;70.90;;;;;;5029144;28;20069;-80
2023/08/29 02:28:46;;;;;;;0.10;0.10;;;22.10;71.00;;;;;;5026190;28;20050;-80
2023/08/29 02:31:13;;;;;;;0.38;0.38;;;22.00;70.90;;;;;;5028198;28;20030;-80
2023/08/29 02:33:38;;;;;;;0.30;0.30;;;22.10;70.90;;;;;;5029213;28;20418;-80
2023/08/29 02:36:05;;;;;;;0.20;0.20;;;22.10;70.90;;;;;;5024491;28;20034;-80
2023/08/29 02:38:31;;;;;;;0.35;0.30;;;22.10;70.90;;;;;;5028437;28;20120;-80
2023/08/29 02:40:56;;;;;;;0.20;0.20;;;22.10;70.90;;;;;;5027834;28;20037;-79
2023/08/29 02:43:22;;;;;;;0.22;0.22;;;22.10;70.90;;;;;;5025916;28;20038;-80
2023/08/29 02:45:50;;;;;;;0.40;0.22;;;22.10;70.80;;;;;;5024880;28;20038;-81
2023/08/29 02:48:15;;;;;;;0.28;0.25;;;22.10;71.20;;;;;;5027337;28;20107;-80
2023/08/29 02:50:41;;;;;;;0.30;0.30;;;22.10;71.30;;;;;;5026547;28;20494;-81
2023/08/29 02:53:07;;;;;;;0.20;0.20;;;22.10;71.40;;;;;;5026150;28;20444;-81
2023/08/29 02:55:33;;;;;;;0.38;0.30;;;22.10;71.00;;;;;;5026713;28;20068;-81
2023/08/29 02:57:58;;;;;;;0.30;0.17;;;22.10;70.90;;;;;;5027826;28;20124;-81
2023/08/29 03:00:24;;;;;;;0.30;0.30;;;22.10;70.90;;;;;;5026321;28;20533;-81
2023/08/29 03:02:49;;;;;;;0.20;0.20;;;22.10;70.80;;;;;;5026601;28;20094;-81
2023/08/29 03:05:15;;;;;;;0.30;0.30;;;22.10;70.80;;;;;;5024882;28;20046;-81
2023/08/29 03:07:41;;;;;;;0.30;0.30;;;22.10;70.80;;;;;;5026416;28;20622;-81
2023/08/29 03:10:07;;;;;;;0.30;0.30;;;22.10;71.00;;;;;;5027736;28;20053;-81
2023/08/29 03:12:32;;;;;;;0.30;0.22;;;22.10;70.90;;;;;;5041220;28;20050;-81
2023/08/29 03:14:58;;;;;;;0.35;0.35;;;22.10;70.90;;;;;;5026880;28;20121;-81
2023/08/29 03:17:23;;;;;;;0.30;0.30;;;22.10;71.00;;;;;;5026233;28;20067;-81
2023/08/29 03:19:49;;;;;;;0.30;0.20;;;22.10;70.90;;;;;;5026759;28;20435;-81
2023/08/29 03:22:15;;;;;;;0.47;0.30;;;22.00;70.90;;;;;;5027773;28;20147;-81
2023/08/29 03:24:40;;;;;;;0.17;0.17;;;22.00;71.00;;;;;;5027421;28;20132;-81
2023/08/29 03:27:06;;;;;;;0.28;0.28;;;22.00;70.90;;;;;;5024558;28;20415;-81
2023/08/29 03:29:31;;;;;;;0.25;0.25;;;22.10;70.90;;;;;;5024447;28;20052;-81
2023/08/29 03:31:57;;;;;;;0.30;0.30;;;22.00;70.80;;;;;;5026167;28;20090;-81
2023/08/29 03:34:23;;;;;;;0.43;0.28;;;22.00;70.90;;;;;;5028697;28;20064;-81
2023/08/29 03:36:48;;;;;;;0.30;0.30;;;22.10;70.90;;;;;;5027942;28;20057;-83
2023/08/29 03:39:14;;;;;;;0.20;0.15;;;22.00;70.90;;;;;;4673668;28;9999705;-80
2023/08/29 03:41:39;;;;;;;0.20;0.20;;;22.00;71.10;;;;;;5023704;28;20499;-82
2023/08/29 03:44:05;;;;;;;0.77;0.60;;;22.10;69.90;;;;;;5020130;28;20392;-81
2023/08/29 03:46:31;;;;;;;0.65;0.30;;;22.00;70.40;;;;;;5021574;28;20123;-82
2023/08/29 03:48:56;;;;;;;0.90;0.43;;;22.00;70.60;;;;;;5022964;28;20049;-80
2023/08/29 03:51:22;;;;;;;0.30;0.30;;;22.00;70.70;;;;;;5021760;28;20175;-82
2023/08/29 03:53:47;;;;;;;0.45;0.45;;;22.00;71.00;;;;;;5017842;28;20065;-81
2023/08/29 03:56:13;;;;;;;0.40;0.40;;;22.00;71.00;;;;;;5021951;28;20488;-81
2023/08/29 03:58:39;;;;;;;0.50;0.50;;;22.00;71.00;;;;;;5020366;28;20104;-79
2023/08/29 04:01:04;;;;;;;0.45;0.43;;;22.00;71.00;;;;;;5022902;28;20038;-79
2023/08/29 04:03:33;;;;;;;0.40;0.40;;;22.00;70.90;;;;;;5022993;28;20531;-79
2023/08/29 04:05:58;;;;;;;0.47;0.47;;;22.00;70.80;;;;;;5023025;28;20042;-80
2023/08/29 04:08:24;;;;;;;0.35;0.35;;;22.00;70.60;;;;;;5021417;28;20038;-80
2023/08/29 04:10:49;;;;;;;0.40;0.30;;;22.00;70.50;;;;;;5022767;28;20052;-81
2023/08/29 04:13:15;;;;;;;0.35;0.35;;;22.00;70.50;;;;;;5022006;28;20389;-80
2023/08/29 04:15:41;;;;;;;0.30;0.30;;;22.00;70.50;;;;;;5024778;28;20045;-82
2023/08/29 04:18:07;;;;;;;0.30;0.30;;;22.00;70.50;;;;;;5022062;28;20057;-82
2023/08/29 04:20:33;;;;;;;0.40;0.30;;;22.10;70.20;;;;;;5021184;28;20061;-81
2023/08/29 04:23:02;;;;;;;0.40;0.38;;;22.00;70.10;;;;;;5019820;28;20045;-82
2023/08/29 04:25:28;;;;;;;0.40;0.40;;;22.00;70.10;;;;;;5020194;28;20044;-82
2023/08/29 04:27:54;;;;;;;0.30;0.30;;;22.10;69.80;;;;;;5019323;28;20041;-81
2023/08/29 04:30:20;;;;;;;0.40;0.40;;;22.00;70.00;;;;;;5020421;28;20037;-81
2023/08/29 04:32:50;;;;;;;0.40;0.40;;;22.10;69.90;;;;;;5019295;28;20500;-81
2023/08/29 04:35:16;;;;;;;0.65;0.30;;;22.00;70.00;;;;;;5015540;28;20120;-81
2023/08/29 04:37:45;;;;;;;0.40;0.40;;;22.00;69.90;;;;;;5021111;28;20132;-81
2023/08/29 04:40:10;;;;;;;0.30;0.30;;;22.00;69.90;;;;;;5021973;28;20095;-81
2023/08/29 04:42:37;;;;;;;0.30;0.30;;;22.00;69.90;;;;;;5019806;28;20045;-82
2023/08/29 04:45:07;;;;;;;0.30;0.30;;;22.00;69.80;;;;;;5019734;28;20049;-80
2023/08/29 04:47:32;;;;;;;0.38;0.25;;;22.00;70.10;;;;;;5034354;28;20515;-81
2023/08/29 04:50:01;;;;;;;0.40;0.40;;;22.00;69.80;;;;;;5018329;28;20056;-81
2023/08/29 04:52:27;;;;;;;0.35;0.30;;;22.00;69.90;;;;;;5020088;28;20241;-80
2023/08/29 04:54:53;;;;;;;0.20;0.20;;;22.00;69.80;;;;;;5020225;28;20055;-81
2023/08/29 04:57:19;;;;;;;0.40;0.40;;;22.00;69.40;;;;;;5020194;28;20045;-82
2023/08/29 04:59:45;;;;;;;0.30;0.30;;;22.00;69.80;;;;;;5015033;28;20533;-81
2023/08/29 05:02:10;;;;;;;0.30;0.30;;;22.00;69.80;;;;;;5020096;28;20529;-81
2023/08/29 05:04:36;;;;;;;0.30;0.30;;;22.00;69.70;;;;;;5021307;28;20046;-80
2023/08/29 05:07:02;;;;;;;0.30;0.30;;;22.00;69.70;;;;;;5017602;28;20044;-80
2023/08/29 05:09:28;;;;;;;0.35;0.30;;;22.00;69.70;;;;;;5020635;28;20042;-80
2023/08/29 05:11:54;;;;;;;0.30;0.30;;;22.00;69.60;;;;;;5015574;28;20179;-80
2023/08/29 05:14:20;;;;;;;0.30;0.30;;;22.00;69.60;;;;;;5018868;28;20067;-80
2023/08/29 05:16:45;;;;;;;0.43;0.30;;;22.00;69.60;;;;;;5018513;28;20037;-80
2023/08/29 05:19:11;;;;;;;0.20;0.20;;;22.00;69.60;;;;;;5021426;28;20053;-81
2023/08/29 05:21:37;;;;;;;0.40;0.40;;;22.00;70.80;;;;;;5023743;28;20522;-80
2023/08/29 05:24:04;;;;;;;0.30;0.30;;;22.00;70.10;;;;;;5019342;28;20144;-78
2023/08/29 05:26:29;;;;;;;0.32;0.32;;;22.00;69.60;;;;;;5014497;28;20046;-80
2023/08/29 05:28:55;;;;;;;1.42;0.80;;;22.00;67.90;;;;;;5019772;28;20057;-79
2023/08/29 05:31:20;;;;;;;1.00;0.88;;;21.80;65.00;;;;;;5022665;28;20124;-78
2023/08/29 05:33:46;;;;;;;1.15;1.00;;;21.60;63.60;;;;;;5020000;28;20045;-78
2023/08/29 05:36:11;;;;;;;1.67;1.20;;;21.50;62.80;;;;;;5020243;28;20358;-78
2023/08/29 05:38:37;;;;;;;1.30;1.20;;;21.40;62.30;;;;;;5019344;28;20454;-78
2023/08/29 05:41:03;;;;;;;1.40;1.00;;;21.40;62.00;;;;;;5021058;28;20049;-78
2023/08/29 05:43:28;;;;;;;1.10;0.93;;;21.30;61.90;;;;;;5020375;28;20099;-78
2023/08/29 05:45:55;;;;;;;1.80;1.35;;;21.20;61.60;;;;;;5022026;28;20040;-79
2023/08/29 05:48:20;;;;;;;1.65;1.20;;;21.20;61.60;;;;;;5023902;28;20052;-78
2023/08/29 05:50:49;;;;;;;2.08;1.27;;;21.20;62.60;;;;;;4994999;28;20047;-78
2023/08/29 05:53:20;;;;;;;3.20;1.15;;;21.10;61.80;;;;;;5046447;28;20061;-78
2023/08/29 05:55:47;;;;;;;1.10;1.00;;;21.10;61.60;;;;;;5021831;28;20072;-78
2023/08/29 05:58:12;;;;;;;2.33;1.63;;;21.10;61.60;;;;;;5024542;28;20037;-79
2023/08/29 06:00:38;;;;;;;1.30;1.20;;;21.10;61.50;;;;;;5026291;28;20491;-78
2023/08/29 06:03:05;;;;;;;1.35;1.17;;;21.00;61.70;;;;;;5023639;28;20119;-78
2023/08/29 06:05:36;;;;;;;1.48;1.27;;;21.10;61.60;;;;;;5021793;28;20073;-78
2023/08/29 06:08:02;;;;;;;1.25;1.15;;;21.00;61.60;;;;;;5015328;28;20207;-79
2023/08/29 06:10:28;;;;;;;1.20;1.10;;;21.00;61.80;;;;;;5022252;28;20045;-79
2023/08/29 06:12:54;;;;;;;1.35;1.25;;;21.00;61.80;;;;;;5024174;28;20503;-79
2023/08/29 06:15:20;;;;;;;1.40;1.30;;;20.90;61.90;;;;;;5025997;28;20515;-78
2023/08/29 06:17:45;;;;;;;1.70;1.20;;;20.90;62.00;;;;;;5021978;28;20049;-78
2023/08/29 06:20:11;;;;;;;1.77;1.17;;;20.90;61.90;;;;;;5024072;28;20096;-78
2023/08/29 06:22:37;;;;;;;1.55;1.10;;;20.90;62.40;;;;;;5018766;28;20038;-78
2023/08/29 06:25:04;;;;;;;1.33;1.23;;;20.90;61.90;;;;;;5023108;28;20084;-78
2023/08/29 06:27:29;;;;;;;2.03;1.20;;;20.80;62.30;;;;;;5022265;28;20056;-78
2023/08/29 06:29:55;;;;;;;1.30;1.13;;;20.80;62.70;;;;;;5023815;28;20140;-78
2023/08/29 06:32:21;;;;;;;2.67;1.25;;;20.80;63.20;;;;;;5019636;28;20041;-77
2023/08/29 06:34:46;;;;;;;1.52;1.17;;;20.90;63.50;;;;;;5038826;28;20041;-78
2023/08/29 06:37:13;;;;;;;1.45;1.33;;;21.00;64.30;;;;;;5025554;28;20045;-77
2023/08/29 06:39:39;;;;;;;2.67;0.80;;;21.10;65.00;;;;;;5024944;28;20429;-76
2023/08/29 06:42:05;;;;;;;1.77;1.10;;;21.20;64.60;;;;;;5017663;28;20511;-76
2023/08/29 06:44:30;;;;;;;1.30;1.00;;;21.20;64.90;;;;;;5023761;28;20136;-78
2023/08/29 06:46:56;;;;;;;0.80;0.80;;;21.30;64.50;;;;;;5023513;28;20078;-78
2023/08/29 06:49:22;;;;;;;1.80;1.20;;;21.30;65.10;;;;;;5023798;28;20064;-78
2023/08/29 06:51:49;;;;;;;1.30;1.10;;;21.30;65.40;;;;;;5025955;28;20079;-78
2023/08/29 06:54:15;;;;;;;0.85;0.85;;;21.30;65.30;;;;;;5028340;28;20084;-78
2023/08/29 06:56:51;;;;;;;1.75;1.13;;;21.40;65.50;;;;;;5038876;28;20087;-77
2023/08/29 06:59:17;;;;;;;3.15;1.20;;;21.40;65.40;;;;;;5026500;28;20541;-78
2023/08/29 07:01:42;;;;;;;2.20;1.20;;;21.40;65.70;;;;;;5027810;28;20121;-78
2023/08/29 07:04:09;;;;;;;1.58;0.98;;;21.40;65.60;;;;;;5027791;28;20115;-78
2023/08/29 07:06:34;;;;;;;2.55;0.90;;;21.40;66.50;;;;;;5029901;28;20037;-78
2023/08/29 07:09:00;;;;;;;0.80;0.80;;;21.40;65.70;;;;;;5026516;28;20054;-78
2023/08/29 07:11:26;;;;;;;2.55;1.50;;;21.40;66.00;;;;;;5023197;28;20137;-78
2023/08/29 07:13:52;;;;;;;0.95;0.95;;;21.40;65.90;;;;;;5026441;28;20099;-78
2023/08/29 07:16:40;;;;;;;0.70;0.70;;;21.40;66.00;;;;;;5026470;28;20080;-77
2023/08/29 07:19:06;;;;;;;1.40;0.90;;;21.50;66.10;;;;;;5023370;28;20049;-78
2023/08/29 07:21:31;;;;;;;0.73;0.73;;;21.50;66.30;;;;;;5025276;28;20033;-78
2023/08/29 07:23:57;;;;;;;1.27;1.13;;;21.50;66.20;;;;;;5025915;28;20045;-78
2023/08/29 07:26:22;;;;;;;0.98;0.90;;;21.50;66.40;;;;;;5023945;28;20052;-78
2023/08/29 07:28:48;;;;;;;0.70;0.70;;;21.40;66.30;;;;;;5024955;28;20038;-78
2023/08/29 07:31:14;;;;;;;0.73;0.70;;;21.50;66.50;;;;;;5028842;28;20025;-78
2023/08/29 07:33:39;;;;;;;1.10;1.00;;;21.50;66.30;;;;;;5026233;28;20046;-78
2023/08/29 07:36:05;;;;;;;0.60;0.60;;;21.50;66.40;;;;;;5027158;28;20121;-78
2023/08/29 07:38:31;;;;;;;0.80;0.77;;;21.50;66.50;;;;;;5025468;28;20063;-78
2023/08/29 07:40:57;;;;;;;0.80;0.80;;;21.50;66.50;;;;;;5026762;28;20181;-78
2023/08/29 07:43:22;;;;;;;1.25;0.70;;;21.50;67.20;;;;;;5026094;28;20061;-78
2023/08/29 07:45:52;;;;;;;0.70;0.70;;;21.50;66.50;;;;;;5017382;28;20048;-78
2023/08/29 07:48:18;;;;;;;1.15;0.90;;;21.50;66.50;;;;;;5027135;28;20045;-78
2023/08/29 07:50:44;;;;;;;1.05;0.73;;;21.50;66.70;;;;;;5025002;28;20113;-78
2023/08/29 07:53:10;;;;;;;1.10;1.00;;;21.50;66.60;;;;;;5025596;28;20120;-78
2023/08/29 07:55:35;;;;;;;0.60;0.60;;;21.60;66.70;;;;;;5024831;28;20522;-78
2023/08/29 07:58:02;;;;;;;0.63;0.63;;;21.60;66.70;;;;;;5025116;28;20121;-78
2023/08/29 08:00:30;;;;;;;1.77;0.60;;;21.50;66.80;;;;;;5026305;28;20495;-78
2023/08/29 08:02:56;;;;;;;0.90;0.65;;;21.50;66.80;;;;;;5025868;28;20092;-78
2023/08/29 08:05:21;;;;;;;0.77;0.77;;;21.60;66.90;;;;;;5021696;28;20136;-78
2023/08/29 08:07:47;;;;;;;0.50;0.50;;;21.60;66.90;;;;;;5025055;28;20052;-78
2023/08/29 08:10:14;;;;;;;0.68;0.52;;;21.60;66.90;;;;;;5026542;28;20041;-78
2023/08/29 08:12:39;;;;;;;1.95;0.60;;;21.60;66.90;;;;;;5026537;28;20412;-78
2023/08/29 08:15:06;;;;;;;0.63;0.63;;;21.60;67.80;;;;;;5031426;28;20507;-78
2023/08/29 08:17:32;;;;;;;0.70;0.70;;;21.60;67.10;;;;;;5026953;28;20051;-78
2023/08/29 08:19:58;;;;;;;0.65;0.65;;;21.60;67.10;;;;;;5025137;28;20122;-78
2023/08/29 08:22:23;;;;;;;0.60;0.60;;;21.60;67.20;;;;;;5025504;28;20073;-78
2023/08/29 08:24:49;;;;;;;1.33;0.80;;;21.60;67.20;;;;;;5026913;28;20045;-78
2023/08/29 08:27:14;;;;;;;0.57;0.52;;;21.60;67.40;;;;;;5026678;28;20053;-78
2023/08/29 08:29:42;;;;;;;0.50;0.50;;;21.60;67.40;;;;;;5022971;28;20423;-78
2023/08/29 08:32:07;;;;;;;0.60;0.60;;;21.60;67.50;;;;;;5016411;28;20045;-78
2023/08/29 08:34:33;;;;;;;0.50;0.50;;;21.60;67.60;;;;;;5019548;28;20061;-80
2023/08/29 08:36:59;;;;;;;0.50;0.50;;;21.60;67.70;;;;;;5024955;28;20045;-77
2023/08/29 08:39:24;;;;;;;1.42;0.70;;;21.60;67.50;;;;;;5023572;28;20033;-78
2023/08/29 08:41:50;;;;;;;0.70;0.70;;;21.60;67.50;;;;;;5023654;28;20040;-78
2023/08/29 08:44:15;;;;;;;1.05;0.57;;;21.60;67.80;;;;;;5019229;28;20060;-79
2023/08/29 08:46:41;;;;;;;0.60;0.60;;;21.60;67.80;;;;;;5019243;28;20042;-78
2023/08/29 08:49:07;;;;;;;0.60;0.50;;;21.60;67.90;;;;;;5021075;28;20608;-78
2023/08/29 08:51:33;;;;;;;0.90;0.57;;;21.70;68.00;;;;;;5025400;28;20042;-79
2023/08/29 08:53:59;;;;;;;0.43;0.43;;;21.70;68.00;;;;;;5039777;28;20048;-78
2023/08/29 08:56:34;;;;;;;0.60;0.60;;;21.70;68.00;;;;;;5026015;28;20386;-78
2023/08/29 08:58:59;;;;;;;0.43;0.43;;;21.70;68.20;;;;;;5023002;28;20049;-78
2023/08/29 09:01:26;;;;;;;0.60;0.60;;;21.70;68.40;;;;;;5017653;28;20122;-78
2023/08/29 09:03:51;;;;;;;0.70;0.70;;;21.70;68.20;;;;;;5024624;28;20531;-78
2023/08/29 09:06:21;;;;;;;0.65;0.60;;;21.70;68.10;;;;;;5025185;28;20063;-78
2023/08/29 09:08:46;;;;;;;1.02;0.93;;;21.70;68.60;;;;;;5022888;28;20120;-79
2023/08/29 09:11:12;;;;;;;0.75;0.68;;;21.70;68.20;;;;;;5020008;28;20902;-79
2023/08/29 09:13:58;;;;;;;0.63;0.63;;;21.70;68.20;;;;;;5021701;28;20078;-79
2023/08/29 09:16:23;;;;;;;1.20;0.40;;;21.70;68.20;;;;;;5022216;28;20037;-78
2023/08/29 09:18:49;;;;;;;1.88;0.55;;;21.70;68.40;;;;;;5017215;28;20064;-77
2023/08/29 09:21:19;;;;;;;0.65;0.60;;;21.70;68.40;;;;;;5023705;28;20083;-78
2023/08/29 09:23:44;;;;;;;0.70;0.65;;;21.70;68.40;;;;;;5024913;28;20042;-78
2023/08/29 09:26:13;;;;;;;1.70;0.60;;;21.70;68.40;;;;;;5020089;28;20038;-78
2023/08/29 09:28:39;;;;;;;0.40;0.40;;;21.80;68.40;;;;;;5022870;28;20049;-79
2023/08/29 09:31:08;;;;;;;0.60;0.55;;;21.70;68.30;;;;;;5031480;28;20040;-79
2023/08/29 09:34:16;;;;;;;0.35;0.35;;;21.80;68.40;;;;;;5025887;28;20045;-79
2023/08/29 09:36:47;;;;;;;0.40;0.40;;;21.80;68.60;;;;;;5008734;28;20030;-78
2023/08/29 09:39:13;;;;;;;0.70;0.70;;;21.80;68.70;;;;;;5020350;28;20128;-78
2023/08/29 09:41:39;;;;;;;0.95;0.40;;;21.80;68.60;;;;;;5006986;28;20129;-78
2023/08/29 09:44:11;;;;;;;0.47;0.47;;;21.80;68.60;;;;;;5020501;28;20125;-78
2023/08/29 09:46:37;;;;;;;0.68;0.68;;;21.80;68.80;;;;;;5024681;28;20045;-78
2023/08/29 09:49:03;;;;;;;0.70;0.35;;;21.80;68.70;;;;;;5018695;28;20528;-78
2023/08/29 09:51:28;;;;;;;0.60;0.60;;;21.80;68.80;;;;;;5025980;28;20137;-78
2023/08/29 09:53:56;;;;;;;0.70;0.60;;;21.90;68.80;;;;;;5022576;28;20118;-78
2023/08/29 09:56:22;;;;;;;0.55;0.55;;;21.90;68.80;;;;;;5020339;28;20041;-78
2023/08/29 09:58:48;;;;;;;0.57;0.57;;;21.90;68.80;;;;;;5047175;28;20132;-78
2023/08/29 10:01:14;;;;;;;1.23;0.47;;;21.90;68.80;;;;;;5021807;28;20087;-78
2023/08/29 10:03:40;;;;;;;0.60;0.60;;;21.90;69.00;;;;;;5022916;28;20426;-78
2023/08/29 10:06:06;;;;;;;0.63;0.60;;;21.90;68.90;;;;;;5007323;28;20038;-78
2023/08/29 10:08:47;;;;;;;0.50;0.50;;;21.90;69.10;;;;;;5023278;28;20454;-78
2023/08/29 10:11:13;;;;;;;0.57;0.50;;;21.90;69.10;;;;;;4670827;28;10000084;-78
2023/08/29 10:13:42;;;;;;;0.50;0.50;;;21.90;69.20;;;;;;5018422;28;20462;-78
2023/08/29 10:16:08;;;;;;;0.43;0.43;;;21.90;68.80;;;;;;5014936;28;20051;-81
2023/08/29 10:18:34;;;;;;;1.40;0.22;;;21.90;69.00;;;;;;5015028;28;20057;-80
2023/08/29 10:21:04;;;;;;;0.43;0.43;;;21.90;69.00;;;;;;5014264;28;20042;-78
2023/08/29 10:23:36;;;;;;;0.40;0.40;;;21.90;69.00;;;;;;5019507;28;20106;-78
2023/08/29 10:26:02;;;;;;;0.80;0.40;;;21.90;69.10;;;;;;5020905;28;20056;-79
2023/08/29 10:28:28;;;;;;;0.43;0.43;;;22.00;69.00;;;;;;5021778;28;20061;-78
2023/08/29 10:30:54;;;;;;;0.40;0.40;;;21.90;69.10;;;;;;5020784;28;20072;-79
2023/08/29 10:33:21;;;;;;;0.43;0.43;;;21.90;69.10;;;;;;5018550;28;20113;-78
2023/08/29 10:35:50;;;;;;;0.73;0.60;;;22.00;69.00;;;;;;5022595;28;20108;-79
2023/08/29 10:38:16;;;;;;;0.52;0.50;;;22.00;69.00;;;;;;5021666;28;20030;-79
2023/08/29 10:40:42;;;;;;;0.45;0.45;;;22.00;69.00;;;;;;5022661;28;20050;-79
2023/08/29 10:43:18;;;;;;;0.50;0.50;;;22.00;69.00;;;;;;5023836;28;20049;-80
2023/08/29 10:45:47;;;;;;;0.50;0.43;;;22.00;69.10;;;;;;5020645;28;20049;-80
2023/08/29 10:48:17;;;;;;;0.30;0.30;;;22.00;69.00;;;;;;5020151;28;20107;-79
2023/08/29 10:50:48;;;;;;;0.82;0.40;;;22.00;69.00;;;;;;5019636;28;20080;-79
2023/08/29 10:53:19;;;;;;;0.55;0.40;;;22.00;69.00;;;;;;5021161;28;20588;-79
2023/08/29 10:56:03;;;;;;;0.40;0.40;;;22.00;69.10;;;;;;5019506;28;20030;-83
2023/08/29 10:58:42;;;;;;;0.50;0.50;;;22.10;68.70;;;;;;5024416;28;20052;-82
2023/08/29 11:01:28;;;;;;;0.50;0.50;;;22.00;68.70;;;;;;5021260;28;20050;-83
2023/08/29 11:03:54;;;;;;;0.40;0.40;;;22.00;68.70;;;;;;5023459;28;20033;-81
2023/08/29 11:06:22;;;;;;;0.70;0.40;;;22.00;68.70;;;;;;5022145;28;20060;-82
2023/08/29 11:08:47;;;;;;;0.38;0.30;;;22.00;68.80;;;;;;5019831;28;20114;-81
2023/08/29 11:11:14;;;;;;;0.30;0.30;;;22.00;68.50;;;;;;5021395;28;20057;-83
2023/08/29 11:13:55;;;;;;;0.65;0.63;;;22.10;69.10;;;;;;5024324;28;20046;-80
2023/08/29 11:16:21;;;;;;;1.20;1.10;;;22.10;71.00;;;;;;5023683;28;20060;-81
2023/08/29 11:18:49;;;;;;;3.40;0.80;;;22.10;71.40;;;;;;5024936;28;20041;-81
2023/08/29 11:21:15;;;;;;;0.88;0.75;;;22.10;70.60;;;;;;5004181;28;20053;-81
2023/08/29 11:23:41;;;;;;;0.70;0.70;;;22.10;70.20;;;;;;5023521;28;20045;-81
2023/08/29 11:26:08;;;;;;;0.47;0.47;;;22.10;70.40;;;;;;5022284;28;20041;-80
2023/08/29 11:28:37;;;;;;;0.40;0.40;;;22.10;70.20;;;;;;5023981;28;20041;-79
2023/08/29 11:31:04;;;;;;;0.85;0.52;;;22.10;70.10;;;;;;5018500;28;20053;-79
2023/08/29 11:33:34;;;;;;;0.60;0.38;;;22.20;70.20;;;;;;5021154;28;20038;-79
2023/08/29 11:36:04;;;;;;;1.98;0.55;;;22.20;70.10;;;;;;5022200;28;20041;-86
2023/08/29 11:38:30;;;;;;;0.82;0.50;;;22.20;70.00;;;;;;5019144;28;20049;-80
2023/08/29 11:41:06;;;;;;;0.40;0.40;;;22.20;71.10;;;;;;5019279;28;20104;-81
2023/08/29 11:43:32;;;;;;;0.50;0.40;;;22.20;70.40;;;;;;5017745;28;20045;-80
2023/08/29 11:45:59;;;;;;;0.30;0.30;;;22.20;70.70;;;;;;5022968;28;20068;-81
2023/08/29 11:48:25;;;;;;;1.00;0.60;;;22.30;71.10;;;;;;5022231;28;20044;-80
2023/08/29 11:51:00;;;;;;;0.50;0.50;;;22.20;71.50;;;;;;5023262;28;20045;-80
2023/08/29 11:53:44;;;;;;;1.55;0.40;;;22.30;71.60;;;;;;5024307;28;20049;-81
2023/08/29 11:56:10;;;;;;;0.73;0.43;;;22.30;70.90;;;;;;5025026;28;20038;-81
2023/08/29 11:58:37;;;;;;;0.40;0.40;;;22.40;70.70;;;;;;5026283;28;20041;-81
2023/08/29 12:01:04;;;;;;;1.80;0.65;;;22.40;70.60;;;;;;5027292;28;20250;-81
2023/08/29 12:03:30;;;;;;;0.50;0.50;;;22.40;70.50;;;;;;5026459;28;20049;-81
2023/08/29 12:06:05;;;;;;;0.50;0.32;;;22.30;70.10;;;;;;5027658;28;20041;-81
2023/08/29 12:08:34;;;;;;;0.75;0.40;;;22.30;70.10;;;;;;5026421;28;20041;-81
2023/08/29 12:11:00;;;;;;;1.02;0.50;;;22.30;70.10;;;;;;5026356;28;20519;-81
2023/08/29 12:13:26;;;;;;;0.40;0.40;;;22.30;70.10;;;;;;5024850;28;20052;-81
2023/08/29 12:15:51;;;;;;;0.30;0.30;;;22.30;70.30;;;;;;5026079;28;20042;-81
2023/08/29 12:18:24;;;;;;;0.30;0.30;;;22.40;70.30;;;;;;5024589;28;20053;-81
2023/08/29 12:20:50;;;;;;;0.30;0.30;;;22.40;70.20;;;;;;5025677;28;20052;-81
2023/08/29 12:23:26;;;;;;;0.35;0.35;;;22.40;70.30;;;;;;5025661;28;20050;-81
2023/08/29 12:25:55;;;;;;;0.43;0.30;;;22.40;70.30;;;;;;5025569;28;20084;-81
2023/08/29 12:28:22;;;;;;;0.40;0.40;;;22.40;70.10;;;;;;5025395;28;20527;-82
2023/08/29 12:30:48;;;;;;;0.30;0.30;;;22.40;70.10;;;;;;5028268;28;20076;-82
2023/08/29 12:33:13;;;;;;;0.70;0.40;;;22.40;70.00;;;;;;5023517;28;20065;-85
2023/08/29 12:35:39;;;;;;;0.30;0.30;;;22.40;70.10;;;;;;5018868;28;20051;-83
2023/08/29 12:38:05;;;;;;;0.30;0.30;;;22.40;70.00;;;;;;5043042;28;20061;-83
2023/08/29 12:40:31;;;;;;;0.13;0.13;;;22.40;71.00;;;;;;5027537;28;20045;-83
2023/08/29 12:42:56;;;;;;;0.30;0.30;;;22.40;70.30;;;;;;5025049;28;20089;-83
2023/08/29 12:45:22;;;;;;;1.33;0.60;;;22.40;70.40;;;;;;5040223;28;20463;-83